KMCI

Kansas City International Airport

Kansas City, Missouri, USA
METAR KMCI 230153Z 14006KT 10SM FEW120 SCT250 24/17 A3000 RMK AO2 SLP148 T02390172
Observed Flight Rules
May-23 @ 01:53 UTC (an hour ago) Visual Flight Rules
Wind Visibility Clouds
140° at 6 knots 10 miles
  • Few at 12,000' AGL
  • Scattered at 25,000' AGL
Temperatures Readings
Current 24°C / 75°F
Dewpoint 17°C / 63°F
Humidity 65%
Altimeter 30" Hg
Pressure 1014.8 hPa
Elevation 320
METAR KMCI 230153Z 14006KT 10SM FEW120 SCT250 24/17 A3000 RMK AO2 SLP148 T02390172
Observed Flight Rules
May-23 @ 01:53 UTC
(an hour ago)
VFR
Wind Visibility
140° at 6 knots 10 miles
Clouds
  • Few at 12,000' AGL
  • Scattered at 25,000' AGL
Temperature Dewpoint
24°C / 75°F 17°C / 63°F
Humidity Altimeter Pressure
65% 30" Hg 1014.8 hPa